RJOO/ITM METAR and TAF weather

Enter ICAO airport designator
Station Type Date Time Source
RJOO METAR 2020/04/08 20:00 UTC NOAA

RJOO 082000Z 34004KT CAVOK 07/02 Q1019


Station Type Date Time Source
RJOO Decoded METAR 2020/04/08 20:00 UTC NOAA

Osaka International Airport, Japan (RJOO) 34-47N 135-27E 15M
Apr 08, 2020 - 04:00 PM EDT / 2020.04.08 2000 UTC
Wind: from the NNW (340 degrees) at 5 MPH (4 KT):0
Visibility: greater than 7 mile(s):0
Temperature: 44 F (7 C)
Dew Point: 35 F (2 C)
Relative Humidity: 70%
Pressure (altimeter): 30.09 in. Hg (1019 hPa)
ob: RJOO 082000Z 34004KT CAVOK 07/02 Q1019
cycle: 20

Station Type Date Time Source
RJOO TAF 2020/04/08 18:29 UTC NOAA

TAF RJOO 081707Z 0818/1000 32004KT 9999 FEW030
BECMG 0900/0902 22007KT
BECMG 0909/0912 34010KT

Example: see airport list